Time;durP1;ratioP1;P1;durP2;ratioP2;P2;SDS_P1;SDS_P2;PMS_P1;PMS_P2;Temp;Humidity;BMP_temperature;BMP_pressure;BME280_temperature;BME280_humidity;BME280_pressure;Samples;Min_cycle;Max_cycle;Signal;HPM_P1;HPM_P2
2023/09/20 00:00:25;;;;;;;5.77;2.30;;;14.90;98.00;;;;;;5014448;28;20486;-67
2023/09/20 00:02:53;;;;;;;2.70;2.00;;;14.80;98.00;;;;;;5014325;28;20463;-67
2023/09/20 00:05:22;;;;;;;2.93;2.07;;;14.50;98.00;;;;;;5014252;28;20625;-69
2023/09/20 00:07:50;;;;;;;3.50;2.10;;;14.50;98.00;;;;;;5014269;28;20490;-67
2023/09/20 00:10:27;;;;;;;8.00;2.20;;;14.60;98.00;;;;;;5014054;28;20842;-68
2023/09/20 00:12:54;;;;;;;3.53;2.20;;;14.70;98.00;;;;;;5014169;28;20479;-67
2023/09/20 00:15:23;;;;;;;3.37;2.20;;;14.80;98.00;;;;;;5014309;28;20795;-66
2023/09/20 00:17:53;;;;;;;2.30;1.70;;;14.80;98.00;;;;;;4996407;28;20856;-68
2023/09/20 00:20:20;;;;;;;3.33;2.30;;;14.80;98.00;;;;;;5014119;28;20513;-67
2023/09/20 00:22:48;;;;;;;4.40;2.33;;;14.50;98.00;;;;;;5014075;28;20452;-68
2023/09/20 00:25:16;;;;;;;5.30;2.20;;;14.40;98.00;;;;;;5013862;28;20486;-68
2023/09/20 00:27:46;;;;;;;4.03;1.93;;;14.30;98.00;;;;;;5014065;28;20463;-68
2023/09/20 00:30:15;;;;;;;3.27;2.10;;;14.40;98.00;;;;;;5014211;28;20508;-67
2023/09/20 00:32:42;;;;;;;3.53;2.20;;;14.50;98.00;;;;;;5013675;28;20456;-67
2023/09/20 00:35:11;;;;;;;3.70;2.20;;;14.30;98.00;;;;;;4995975;28;20554;-67
2023/09/20 00:37:40;;;;;;;5.23;2.70;;;14.10;98.00;;;;;;4996616;28;20476;-69
2023/09/20 00:40:15;;;;;;;3.00;2.20;;;14.00;98.00;;;;;;4995998;28;20811;-68
2023/09/20 00:42:46;;;;;;;3.70;2.30;;;14.20;98.00;;;;;;5013580;28;20518;-69
2023/09/20 00:45:15;;;;;;;5.00;2.40;;;14.10;98.00;;;;;;5013744;28;20452;-68
2023/09/20 00:47:44;;;;;;;4.70;2.50;;;14.10;98.00;;;;;;5013305;28;20455;-67
2023/09/20 00:50:12;;;;;;;4.40;2.53;;;14.00;98.00;;;;;;5013408;28;20444;-67
2023/09/20 00:52:42;;;;;;;7.70;2.03;;;14.00;98.00;;;;;;5013332;28;20459;-67
2023/09/20 00:55:13;;;;;;;3.03;2.17;;;14.00;98.00;;;;;;5013387;28;20480;-68
2023/09/20 00:57:40;;;;;;;3.80;2.10;;;14.00;98.00;;;;;;5013296;28;20487;-67
2023/09/20 01:00:20;;;;;;;2.50;1.97;;;14.00;98.00;;;;;;5013346;28;20961;-67
2023/09/20 01:02:52;;;;;;;3.47;2.23;;;13.90;98.00;;;;;;4997480;28;20458;-69
2023/09/20 01:05:25;;;;;;;4.73;2.37;;;13.70;98.00;;;;;;5013173;28;20944;-67
2023/09/20 01:07:54;;;;;;;4.17;2.50;;;13.70;98.00;;;;;;5013156;28;20536;-67
2023/09/20 01:10:23;;;;;;;4.63;2.50;;;13.60;98.00;;;;;;5013062;28;20463;-68
2023/09/20 01:12:53;;;;;;;4.67;2.93;;;13.60;98.00;;;;;;5012588;28;20451;-67
2023/09/20 01:15:22;;;;;;;2.77;2.20;;;13.60;98.00;;;;;;5013282;28;20459;-67
2023/09/20 01:17:50;;;;;;;3.77;2.20;;;13.60;98.00;;;;;;4996042;28;20447;-68
2023/09/20 01:20:19;;;;;;;3.30;2.00;;;13.70;98.00;;;;;;5013078;28;20459;-67
2023/09/20 01:22:50;;;;;;;3.03;2.30;;;13.80;98.00;;;;;;5013115;28;20459;-67
2023/09/20 01:25:23;;;;;;;4.30;2.37;;;13.70;98.00;;;;;;5012835;28;20460;-68
2023/09/20 01:27:51;;;;;;;3.47;2.23;;;13.60;98.00;;;;;;5012895;28;20945;-68
2023/09/20 01:30:20;;;;;;;2.70;2.00;;;13.60;98.00;;;;;;4995429;28;20455;-67
2023/09/20 01:32:52;;;;;;;5.73;2.63;;;13.60;98.00;;;;;;5012571;28;20809;-68
2023/09/20 01:35:20;;;;;;;4.60;2.50;;;13.40;98.00;;;;;;5012547;28;20455;-68
2023/09/20 01:37:50;;;;;;;4.33;2.37;;;13.40;98.00;;;;;;4995173;28;20976;-69
2023/09/20 01:40:19;;;;;;;5.17;2.40;;;13.50;98.00;;;;;;5012342;28;20505;-67
2023/09/20 01:42:48;;;;;;;3.60;2.27;;;13.50;98.00;;;;;;5012660;28;20815;-69
2023/09/20 01:45:18;;;;;;;3.03;2.10;;;13.50;98.00;;;;;;5012396;28;20549;-67
2023/09/20 01:47:49;;;;;;;3.73;2.20;;;13.50;98.00;;;;;;5012322;28;20530;-67
2023/09/20 01:50:19;;;;;;;3.73;2.50;;;13.40;98.00;;;;;;5012180;28;21055;-69
2023/09/20 01:52:49;;;;;;;3.33;2.27;;;13.50;98.00;;;;;;5012209;28;20542;-69
2023/09/20 01:55:17;;;;;;;3.77;2.30;;;13.40;98.00;;;;;;5012025;28;20499;-67
2023/09/20 01:57:46;;;;;;;4.67;2.50;;;13.40;98.00;;;;;;5012232;28;20978;-67
2023/09/20 02:00:22;;;;;;;2.87;2.20;;;13.30;98.00;;;;;;4994556;28;20857;-67
2023/09/20 02:02:50;;;;;;;5.83;2.43;;;13.20;98.00;;;;;;5012108;28;20454;-67
2023/09/20 02:05:21;;;;;;;2.37;2.00;;;13.40;98.00;;;;;;5012164;28;20827;-67
2023/09/20 02:07:51;;;;;;;7.70;2.63;;;13.50;98.00;;;;;;4994719;28;20843;-67
2023/09/20 02:10:19;;;;;;;3.53;2.10;;;13.50;98.00;;;;;;5011844;28;20804;-67
2023/09/20 02:12:46;;;;;;;3.60;2.23;;;13.60;98.00;;;;;;5012047;28;20459;-67
2023/09/20 02:15:14;;;;;;;3.10;2.07;;;13.40;98.00;;;;;;5011708;28;20533;-67
2023/09/20 02:17:41;;;;;;;4.30;2.50;;;13.40;98.00;;;;;;5011795;28;20582;-67
2023/09/20 02:20:19;;;;;;;3.87;2.20;;;13.40;98.00;;;;;;5011684;28;20537;-68
2023/09/20 02:22:50;;;;;;;3.10;2.30;;;13.40;98.00;;;;;;5011707;28;20456;-67
2023/09/20 02:25:20;;;;;;;4.73;2.00;;;13.20;98.00;;;;;;5011791;28;20458;-68
2023/09/20 02:27:48;;;;;;;4.13;2.50;;;13.20;98.00;;;;;;5011633;28;20462;-68
2023/09/20 02:30:17;;;;;;;3.60;2.33;;;13.00;98.00;;;;;;5011772;28;20510;-67
2023/09/20 02:32:46;;;;;;;2.90;2.30;;;13.10;98.00;;;;;;5011741;28;20520;-67
2023/09/20 02:35:13;;;;;;;4.70;2.53;;;13.00;98.00;;;;;;5011439;28;20481;-67
2023/09/20 02:37:40;;;;;;;3.77;2.27;;;13.00;98.00;;;;;;5011563;28;20455;-67
2023/09/20 02:40:11;;;;;;;2.60;2.00;;;13.10;98.00;;;;;;5011522;28;20467;-67
2023/09/20 02:42:42;;;;;;;3.60;2.30;;;13.00;98.00;;;;;;5011553;28;20459;-68
2023/09/20 02:45:10;;;;;;;3.00;2.23;;;13.00;98.00;;;;;;5011653;28;20546;-67
2023/09/20 02:47:39;;;;;;;4.10;2.43;;;13.00;98.00;;;;;;5011490;28;20547;-67
2023/09/20 02:50:08;;;;;;;6.10;2.13;;;13.00;98.00;;;;;;5011480;28;20552;-68
2023/09/20 02:52:35;;;;;;;4.00;2.60;;;13.00;98.00;;;;;;5011550;28;20537;-68
2023/09/20 02:55:07;;;;;;;5.70;2.70;;;13.00;98.00;;;;;;5011578;28;20490;-67
2023/09/20 02:57:37;;;;;;;3.63;2.30;;;12.90;98.00;;;;;;5011828;28;20463;-67
2023/09/20 03:00:15;;;;;;;4.50;2.37;;;12.90;98.00;;;;;;5011561;28;20680;-67
2023/09/20 03:02:45;;;;;;;4.40;2.40;;;12.90;98.00;;;;;;4996047;28;20822;-68
2023/09/20 03:05:15;;;;;;;5.23;2.80;;;12.90;98.00;;;;;;5011224;28;20546;-69
2023/09/20 03:07:44;;;;;;;3.57;2.47;;;12.90;98.00;;;;;;4994326;28;20450;-67
2023/09/20 03:10:13;;;;;;;4.30;2.60;;;12.80;98.00;;;;;;5011053;28;21086;-67
2023/09/20 03:12:44;;;;;;;3.60;2.20;;;12.90;98.00;;;;;;5014858;28;20498;-68
2023/09/20 03:15:12;;;;;;;4.80;2.40;;;13.00;98.00;;;;;;5015087;28;20490;-67
2023/09/20 03:17:40;;;;;;;3.13;2.30;;;13.00;98.00;;;;;;5015296;28;20520;-67
2023/09/20 03:20:16;;;;;;;3.00;2.17;;;13.00;98.00;;;;;;5015051;28;20455;-68
2023/09/20 03:22:43;;;;;;;3.10;2.07;;;13.20;98.00;;;;;;5014867;28;20449;-67
2023/09/20 03:25:13;;;;;;;3.93;2.63;;;13.20;98.00;;;;;;5014902;28;20503;-68
2023/09/20 03:27:42;;;;;;;4.17;2.53;;;13.00;98.00;;;;;;5015122;28;20883;-67
2023/09/20 03:30:13;;;;;;;3.47;2.43;;;13.00;98.00;;;;;;5014867;28;20450;-67
2023/09/20 03:32:42;;;;;;;4.20;2.40;;;12.80;98.00;;;;;;5015063;28;20465;-67
2023/09/20 03:35:11;;;;;;;3.20;2.07;;;12.60;98.00;;;;;;5014710;28;20489;-67
2023/09/20 03:37:38;;;;;;;4.23;2.17;;;12.60;98.00;;;;;;5015145;28;20979;-66
2023/09/20 03:40:10;;;;;;;7.57;2.67;;;12.70;98.00;;;;;;5014675;28;20519;-67
2023/09/20 03:42:41;;;;;;;6.23;2.30;;;12.70;98.00;;;;;;5014716;28;20545;-67
2023/09/20 03:45:10;;;;;;;3.37;2.23;;;12.60;98.00;;;;;;5014550;28;20813;-68
2023/09/20 03:47:37;;;;;;;3.53;2.63;;;12.80;98.00;;;;;;5014938;28;20486;-67
2023/09/20 03:50:07;;;;;;;3.30;2.40;;;12.60;98.00;;;;;;5014318;28;20455;-67
2023/09/20 03:52:36;;;;;;;7.77;2.70;;;12.80;98.00;;;;;;5014470;28;20463;-68
2023/09/20 03:55:05;;;;;;;2.70;2.10;;;12.80;98.00;;;;;;5014366;28;20763;-68
2023/09/20 03:57:32;;;;;;;3.10;2.20;;;12.90;98.00;;;;;;5014552;28;20454;-67
2023/09/20 03:59:59;;;;;;;3.43;2.20;;;12.90;98.00;;;;;;5014526;28;20459;-68
2023/09/20 04:02:28;;;;;;;5.03;2.40;;;12.90;98.00;;;;;;5014612;28;20454;-68
2023/09/20 04:04:56;;;;;;;4.50;2.43;;;12.90;98.00;;;;;;5014475;28;20566;-67
2023/09/20 04:07:24;;;;;;;3.60;2.10;;;12.80;98.00;;;;;;5014509;28;20517;-68
2023/09/20 04:09:51;;;;;;;4.67;2.67;;;12.70;98.00;;;;;;5014113;28;20460;-67
2023/09/20 04:12:18;;;;;;;2.93;2.20;;;12.60;98.00;;;;;;5014288;28;20985;-67
2023/09/20 04:14:45;;;;;;;6.40;2.60;;;12.70;98.00;;;;;;5014400;28;20513;-68
2023/09/20 04:17:12;;;;;;;3.97;2.37;;;12.60;98.00;;;;;;5015138;28;20506;-67
2023/09/20 04:19:42;;;;;;;7.30;2.83;;;12.60;98.00;;;;;;5015443;28;20865;-68
2023/09/20 04:22:10;;;;;;;4.00;2.40;;;12.50;98.00;;;;;;5013896;28;20454;-67
2023/09/20 04:24:37;;;;;;;3.57;2.40;;;12.50;98.00;;;;;;5014247;28;20494;-68
2023/09/20 04:27:05;;;;;;;4.17;2.50;;;12.50;98.00;;;;;;5015187;28;20453;-67
2023/09/20 04:29:32;;;;;;;4.30;2.33;;;12.50;98.00;;;;;;5014739;28;20452;-68
2023/09/20 04:31:59;;;;;;;4.83;2.33;;;12.60;98.00;;;;;;5014008;28;20459;-67
2023/09/20 04:34:27;;;;;;;5.57;2.70;;;12.70;98.00;;;;;;5013931;28;20495;-68
2023/09/20 04:36:56;;;;;;;5.10;2.40;;;12.70;98.00;;;;;;5013832;28;20451;-67
2023/09/20 04:39:25;;;;;;;3.80;2.30;;;12.70;98.00;;;;;;5013889;28;20952;-67
2023/09/20 04:41:53;;;;;;;3.97;2.30;;;12.70;98.00;;;;;;5013896;28;20459;-67
2023/09/20 04:44:20;;;;;;;3.83;2.23;;;12.60;98.00;;;;;;4996814;28;20462;-67
2023/09/20 04:46:48;;;;;;;3.70;2.40;;;12.40;98.00;;;;;;5013945;28;20456;-68
2023/09/20 04:49:15;;;;;;;3.67;2.33;;;12.40;98.00;;;;;;5013628;28;20489;-67
2023/09/20 04:51:43;;;;;;;2.80;1.93;;;12.40;98.00;;;;;;5013698;28;20539;-68
2023/09/20 04:54:12;;;;;;;3.47;2.30;;;12.30;98.00;;;;;;5013580;28;20959;-67
2023/09/20 04:56:47;;;;;;;3.60;2.47;;;12.40;98.00;;;;;;5013510;28;20830;-67
2023/09/20 04:59:14;;;;;;;4.87;2.30;;;12.20;98.00;;;;;;5013401;28;20539;-67
2023/09/20 05:01:43;;;;;;;3.93;2.57;;;12.10;98.00;;;;;;5013387;28;20464;-67
2023/09/20 05:04:13;;;;;;;4.83;2.63;;;12.30;98.00;;;;;;5013087;28;20505;-67
2023/09/20 05:06:41;;;;;;;6.03;2.67;;;12.40;98.00;;;;;;5012915;28;20541;-67
2023/09/20 05:09:08;;;;;;;4.27;2.33;;;12.30;98.00;;;;;;5012924;28;20453;-67
2023/09/20 05:11:37;;;;;;;5.80;2.43;;;12.30;98.00;;;;;;5013118;28;20474;-67
2023/09/20 05:14:05;;;;;;;3.87;2.37;;;12.30;98.00;;;;;;5013143;28;20456;-67
2023/09/20 05:16:32;;;;;;;4.10;2.50;;;12.20;98.00;;;;;;5013078;28;20458;-67
2023/09/20 05:18:59;;;;;;;4.03;2.50;;;12.50;98.00;;;;;;5012580;28;20462;-67
2023/09/20 05:21:27;;;;;;;4.10;2.63;;;12.50;98.00;;;;;;5013120;28;20458;-67
2023/09/20 05:23:54;;;;;;;4.20;2.37;;;12.50;98.00;;;;;;5012724;28;20839;-67
2023/09/20 05:26:21;;;;;;;3.70;2.50;;;12.40;98.00;;;;;;5012938;28;20466;-67
2023/09/20 05:28:50;;;;;;;4.50;2.10;;;12.40;98.00;;;;;;5012885;28;21080;-67
2023/09/20 05:31:17;;;;;;;5.50;2.50;;;12.60;98.00;;;;;;5012979;28;20456;-67
2023/09/20 05:33:44;;;;;;;6.10;2.50;;;12.70;98.00;;;;;;5011974;28;20828;-68
2023/09/20 05:36:16;;;;;;;5.87;3.00;;;12.70;98.00;;;;;;4995521;28;20484;-67
2023/09/20 05:38:44;;;;;;;6.40;2.97;;;12.80;98.00;;;;;;5013052;28;20459;-67
2023/09/20 05:41:12;;;;;;;6.27;3.17;;;12.80;98.00;;;;;;5012671;28;20470;-69
2023/09/20 05:43:42;;;;;;;5.73;3.60;;;12.80;98.00;;;;;;5012847;28;20508;-67
2023/09/20 05:46:11;;;;;;;18.10;5.33;;;12.70;98.00;;;;;;5012529;28;20446;-68
2023/09/20 05:48:39;;;;;;;7.00;3.43;;;12.60;98.00;;;;;;5012439;28;20462;-68
2023/09/20 05:51:06;;;;;;;3.47;2.57;;;12.60;98.00;;;;;;5012362;28;20455;-68
2023/09/20 05:53:34;;;;;;;3.90;2.47;;;12.60;98.00;;;;;;5012598;28;20462;-68
2023/09/20 05:56:08;;;;;;;5.80;2.90;;;12.60;98.00;;;;;;5012158;28;20577;-68
2023/09/20 05:58:44;;;;;;;4.90;2.73;;;12.50;98.00;;;;;;5012634;28;20459;-68
2023/09/20 06:01:13;;;;;;;7.80;2.43;;;12.50;98.00;;;;;;5013128;28;20455;-67
2023/09/20 06:03:40;;;;;;;4.57;2.70;;;12.50;98.00;;;;;;5012962;28;20483;-68
2023/09/20 06:06:08;;;;;;;4.70;2.60;;;12.60;98.00;;;;;;5012803;28;20538;-68
2023/09/20 06:08:35;;;;;;;5.00;2.80;;;12.90;98.00;;;;;;5013009;28;20458;-67
2023/09/20 06:11:04;;;;;;;3.67;2.67;;;13.00;98.00;;;;;;5012840;28;20464;-67
2023/09/20 06:13:32;;;;;;;3.93;2.70;;;13.10;98.00;;;;;;5013041;28;20505;-66
2023/09/20 06:15:59;;;;;;;3.73;2.57;;;13.20;98.00;;;;;;5012665;28;20508;-63
2023/09/20 06:18:27;;;;;;;5.63;2.70;;;13.30;98.00;;;;;;5012708;28;20461;-64
2023/09/20 06:20:55;;;;;;;5.63;2.97;;;13.30;98.00;;;;;;5012694;28;20465;-64
2023/09/20 06:23:25;;;;;;;6.10;2.73;;;13.40;98.00;;;;;;5012896;28;20480;-64
2023/09/20 06:25:53;;;;;;;6.97;3.53;;;13.50;98.00;;;;;;5012396;28;21100;-64
2023/09/20 06:28:20;;;;;;;7.83;3.70;;;13.40;98.00;;;;;;5012807;28;20546;-64
2023/09/20 06:30:48;;;;;;;7.07;3.10;;;13.40;98.00;;;;;;5012075;28;20814;-64
2023/09/20 06:33:16;;;;;;;5.07;3.00;;;13.40;98.00;;;;;;5012518;28;20488;-64
2023/09/20 06:35:44;;;;;;;6.80;3.43;;;13.40;98.00;;;;;;5012277;28;20481;-64
2023/09/20 06:38:12;;;;;;;5.33;2.93;;;13.40;98.00;;;;;;5012354;28;20469;-64
2023/09/20 06:40:39;;;;;;;4.17;2.83;;;13.50;98.00;;;;;;5012322;28;20505;-64
2023/09/20 06:43:08;;;;;;;6.30;3.20;;;13.70;98.00;;;;;;5012215;28;20455;-64
2023/09/20 06:45:35;;;;;;;4.07;2.97;;;13.90;98.00;;;;;;5012105;28;20473;-64
2023/09/20 06:48:03;;;;;;;7.40;2.90;;;14.00;98.00;;;;;;5012161;28;20454;-64
2023/09/20 06:50:33;;;;;;;4.73;3.00;;;14.10;98.00;;;;;;5011984;28;20482;-64
2023/09/20 06:53:02;;;;;;;5.83;3.30;;;14.30;98.00;;;;;;5012043;28;20454;-64
2023/09/20 06:55:29;;;;;;;6.93;3.40;;;14.50;98.00;;;;;;5012100;28;20865;-64
2023/09/20 06:57:58;;;;;;;8.77;3.43;;;14.70;98.00;;;;;;5012023;28;20455;-64
2023/09/20 07:00:26;;;;;;;4.80;3.03;;;14.70;98.00;;;;;;5012057;28;20463;-64
2023/09/20 07:02:55;;;;;;;5.90;3.20;;;14.70;98.00;;;;;;5011971;28;20454;-64
2023/09/20 07:05:24;;;;;;;4.90;2.80;;;14.80;98.00;;;;;;5012188;28;20448;-64
2023/09/20 07:07:54;;;;;;;5.90;3.20;;;14.80;98.00;;;;;;5011856;28;20455;-64
2023/09/20 07:10:22;;;;;;;5.80;2.83;;;14.90;98.00;;;;;;5011877;28;20859;-64
2023/09/20 07:12:50;;;;;;;9.33;2.80;;;15.00;98.00;;;;;;5012011;28;20968;-64
2023/09/20 07:15:18;;;;;;;4.60;2.93;;;15.00;98.00;;;;;;5011879;28;20541;-64
2023/09/20 07:17:50;;;;;;;5.20;2.30;;;15.10;98.00;;;;;;5011977;28;20473;-67
2023/09/20 07:20:17;;;;;;;4.57;2.30;;;15.40;98.00;;;;;;5011891;28;20945;-67
2023/09/20 07:22:46;;;;;;;4.63;2.50;;;16.20;98.00;;;;;;5011640;28;20464;-69
2023/09/20 07:25:19;;;;;;;3.03;2.00;;;16.80;98.00;;;;;;5011939;28;20525;-68
2023/09/20 07:27:49;;;;;;;5.77;2.77;;;17.40;98.00;;;;;;5011999;28;20460;-66
2023/09/20 07:30:22;;;;;;;3.33;2.43;;;17.90;98.00;;;;;;5011735;28;20509;-66
2023/09/20 07:32:51;;;;;;;3.77;2.60;;;18.40;98.00;;;;;;4994721;28;20475;-67
2023/09/20 07:35:26;;;;;;;5.00;2.50;;;18.90;98.00;;;;;;5011923;28;20494;-67
2023/09/20 07:37:57;;;;;;;3.90;2.20;;;19.30;98.00;;;;;;5011847;28;20455;-69
2023/09/20 07:40:29;;;;;;;4.07;2.23;;;19.60;98.00;;;;;;5009665;28;20460;-66
2023/09/20 07:43:01;;;;;;;3.80;2.73;;;20.00;98.00;;;;;;5010848;28;20942;-67
2023/09/20 07:45:37;;;;;;;3.10;2.40;;;20.20;98.00;;;;;;5010941;28;20479;-67
2023/09/20 07:48:11;;;;;;;12.90;2.83;;;20.50;98.00;;;;;;5010938;28;20837;-67
2023/09/20 07:50:42;;;;;;;6.77;2.60;;;20.60;98.00;;;;;;5010723;28;20477;-69
2023/09/20 07:53:11;;;;;;;3.87;2.47;;;20.70;98.00;;;;;;5010911;28;20451;-67
2023/09/20 07:55:45;;;;;;;4.33;2.50;;;20.80;98.00;;;;;;5010620;28;20494;-69
2023/09/20 07:58:15;;;;;;;4.77;2.70;;;21.00;98.00;;;;;;5013521;28;20839;-67
2023/09/20 08:00:44;;;;;;;3.90;2.50;;;21.10;98.00;;;;;;5013987;28;20455;-68
2023/09/20 08:03:12;;;;;;;4.33;2.73;;;21.40;98.00;;;;;;5014790;28;20455;-67
2023/09/20 08:05:41;;;;;;;4.07;2.90;;;21.20;98.00;;;;;;5013061;28;21092;-66
2023/09/20 08:08:10;;;;;;;3.70;2.60;;;21.00;98.00;;;;;;5013789;28;20795;-67
2023/09/20 08:10:38;;;;;;;2.80;2.27;;;20.70;98.00;;;;;;5011583;28;20468;-68
2023/09/20 08:13:06;;;;;;;5.30;2.60;;;20.60;98.00;;;;;;5013798;28;20491;-67
2023/09/20 08:15:41;;;;;;;2.80;2.30;;;20.50;98.00;;;;;;5014038;28;20479;-66
2023/09/20 08:20:54;;;;;;;5.47;2.47;;;20.70;98.00;;;;;;5014537;28;20567;-66
2023/09/20 09:02:02;;;;;;;2.97;2.20;;;21.60;98.00;;;;;;5013936;28;20494;-64
2023/09/20 09:04:30;;;;;;;2.57;2.20;;;21.80;98.00;;;;;;5013558;28;20798;-64
2023/09/20 09:06:58;;;;;;;6.97;2.30;;;22.00;98.00;;;;;;5013688;28;20854;-64
2023/09/20 09:09:25;;;;;;;3.37;2.30;;;22.10;98.00;;;;;;5012528;28;20960;-64
2023/09/20 09:11:57;;;;;;;3.57;2.20;;;22.20;98.00;;;;;;5013401;28;20464;-64
2023/09/20 09:14:25;;;;;;;3.77;2.00;;;22.30;98.00;;;;;;5013571;28;20950;-64
2023/09/20 09:17:01;;;;;;;3.00;2.17;;;22.40;98.00;;;;;;5013217;28;20494;-64
2023/09/20 09:19:30;;;;;;;4.13;2.20;;;22.50;98.00;;;;;;5005406;28;20857;-64
2023/09/20 09:21:58;;;;;;;3.30;2.30;;;22.60;98.00;;;;;;5013450;28;20463;-64
2023/09/20 09:27:08;;;;;;;2.90;2.07;;;22.80;98.00;;;;;;5011034;28;20480;-64
2023/09/20 09:29:36;;;;;;;2.70;2.07;;;22.90;98.00;;;;;;5012711;28;20455;-64
2023/09/20 09:32:04;;;;;;;2.60;2.20;;;23.10;98.00;;;;;;5012681;28;20498;-64
2023/09/20 09:34:34;;;;;;;3.47;2.30;;;23.30;98.00;;;;;;4995238;28;20522;-64
2023/09/20 09:37:02;;;;;;;2.63;2.00;;;23.20;98.00;;;;;;5011761;28;20491;-65
2023/09/20 09:39:29;;;;;;;3.47;2.00;;;23.40;98.00;;;;;;5012678;28;20451;-64
2023/09/20 09:41:57;;;;;;;2.93;2.20;;;23.60;98.00;;;;;;4995285;28;20495;-65
2023/09/20 09:44:25;;;;;;;2.63;2.00;;;23.70;98.00;;;;;;5012723;28;20634;-64
2023/09/20 09:46:53;;;;;;;3.93;2.03;;;23.80;98.00;;;;;;5011985;28;20502;-64
2023/09/20 09:49:27;;;;;;;2.70;1.80;;;23.90;96.80;;;;;;4994861;28;20522;-64
2023/09/20 09:51:55;;;;;;;2.80;2.20;;;23.90;96.20;;;;;;5012328;28;20527;-65
2023/09/20 09:54:24;;;;;;;3.10;2.07;;;24.10;96.90;;;;;;5012386;28;20854;-64
2023/09/20 09:56:51;;;;;;;2.23;1.90;;;24.00;95.40;;;;;;5012142;28;21002;-65
2023/09/20 09:59:18;;;;;;;2.33;1.87;;;24.10;95.20;;;;;;4994604;28;20448;-64
2023/09/20 10:01:48;;;;;;;2.27;1.93;;;24.10;95.30;;;;;;4994643;28;20958;-64
2023/09/20 10:04:17;;;;;;;2.43;1.77;;;24.10;94.70;;;;;;5011796;28;20455;-64
2023/09/20 10:07:10;;;;;;;2.77;1.80;;;24.40;95.90;;;;;;5011909;28;20539;-64
2023/09/20 10:09:42;;;;;;;3.30;2.07;;;24.60;95.00;;;;;;5011519;28;20463;-65
2023/09/20 10:12:10;;;;;;;4.03;2.20;;;24.80;94.20;;;;;;5011565;28;20451;-65
2023/09/20 10:14:39;;;;;;;3.00;2.07;;;24.90;94.10;;;;;;4994678;28;20451;-65
2023/09/20 10:17:08;;;;;;;2.20;2.00;;;24.90;95.00;;;;;;5011803;28;20496;-64
2023/09/20 10:19:36;;;;;;;3.33;1.90;;;25.10;96.00;;;;;;5011434;28;20460;-64
2023/09/20 10:22:09;;;;;;;3.50;2.30;;;25.40;93.00;;;;;;5011801;28;20953;-64
2023/09/20 10:24:53;;;;;;;2.90;2.20;;;25.50;92.60;;;;;;5011536;28;20460;-64
2023/09/20 10:27:21;;;;;;;3.40;2.10;;;25.60;94.60;;;;;;5011865;28;20883;-65
2023/09/20 10:30:00;;;;;;;2.93;2.20;;;25.80;93.60;;;;;;5011565;28;20452;-65
2023/09/20 10:32:32;;;;;;;3.67;2.30;;;25.80;93.80;;;;;;5011530;28;20495;-65
2023/09/20 10:35:29;;;;;;;2.77;2.10;;;26.00;93.60;;;;;;5011537;28;20970;-64
2023/09/20 10:38:04;;;;;;;2.90;2.20;;;26.10;91.40;;;;;;5011587;28;20961;-65
2023/09/20 10:41:03;;;;;;;3.87;1.83;;;26.30;92.90;;;;;;4994449;28;20463;-65
2023/09/20 10:43:48;;;;;;;2.90;1.97;;;26.20;92.00;;;;;;5011557;28;20490;-65
2023/09/20 10:46:22;;;;;;;2.70;2.30;;;26.30;91.40;;;;;;5011394;28;20451;-65
2023/09/20 10:48:50;;;;;;;2.87;2.10;;;26.40;90.90;;;;;;5011364;28;20929;-65
2023/09/20 10:51:54;;;;;;;3.93;2.27;;;26.40;90.50;;;;;;5011312;28;20448;-65
2023/09/20 10:54:26;;;;;;;3.23;2.17;;;26.60;89.90;;;;;;4931425;29;20553;-65
2023/09/20 10:57:09;;;;;;;4.97;2.57;;;26.80;90.50;;;;;;4931166;29;20862;-65
2023/09/20 10:59:37;;;;;;;3.53;2.37;;;27.00;88.90;;;;;;4979734;28;20460;-65
2023/09/20 11:02:08;;;;;;;4.00;2.53;;;27.30;89.20;;;;;;4994103;28;20452;-65
2023/09/20 11:04:36;;;;;;;2.93;2.33;;;27.40;85.90;;;;;;5011436;28;20455;-65
2023/09/20 11:07:05;;;;;;;3.73;2.23;;;27.50;86.30;;;;;;5011293;28;20883;-65
2023/09/20 11:09:33;;;;;;;3.77;2.70;;;27.60;84.70;;;;;;4994039;28;20468;-65
2023/09/20 11:12:11;;;;;;;3.50;2.40;;;27.70;84.10;;;;;;5011052;28;20447;-65
2023/09/20 11:14:40;;;;;;;3.13;2.40;;;27.80;83.80;;;;;;4994532;28;20447;-65
2023/09/20 11:17:08;;;;;;;2.80;2.30;;;27.80;86.00;;;;;;5010990;28;20468;-67
2023/09/20 11:19:38;;;;;;;2.90;2.37;;;27.80;82.70;;;;;;5011407;28;20526;-68
2023/09/20 11:22:06;;;;;;;3.43;2.27;;;28.00;83.20;;;;;;5011403;28;20444;-68
2023/09/20 11:24:36;;;;;;;2.53;2.10;;;28.20;83.20;;;;;;5011570;28;20830;-66
2023/09/20 11:27:05;;;;;;;3.60;2.20;;;28.50;81.90;;;;;;5010363;28;20454;-68
2023/09/20 11:29:37;;;;;;;2.73;2.00;;;28.60;81.40;;;;;;5011173;28;20514;-67
2023/09/20 11:32:09;;;;;;;3.00;2.17;;;28.40;79.30;;;;;;5012288;28;20497;-67
2023/09/20 11:34:43;;;;;;;3.37;2.07;;;28.40;80.60;;;;;;5015235;28;21056;-66
2023/09/20 11:37:12;;;;;;;3.60;2.30;;;28.50;83.40;;;;;;5015251;28;20865;-67
2023/09/20 11:39:45;;;;;;;2.73;2.27;;;28.50;81.60;;;;;;5015068;28;20447;-66
2023/09/20 11:42:24;;;;;;;2.57;2.17;;;28.60;82.80;;;;;;5014898;28;20470;-66
2023/09/20 11:45:01;;;;;;;2.70;2.10;;;29.10;82.50;;;;;;5014950;28;20513;-66
2023/09/20 11:47:31;;;;;;;5.57;3.00;;;29.50;79.30;;;;;;5014986;28;20450;-65
2023/09/20 11:49:58;;;;;;;3.00;2.23;;;29.70;79.50;;;;;;5014732;28;20463;-64
2023/09/20 11:52:25;;;;;;;2.77;2.00;;;30.00;80.20;;;;;;5014623;28;20954;-64
2023/09/20 11:54:58;;;;;;;3.73;2.20;;;30.30;79.90;;;;;;5023280;28;20462;-64
2023/09/20 11:57:27;;;;;;;3.60;2.03;;;30.50;78.50;;;;;;5017097;28;20482;-65
2023/09/20 11:59:55;;;;;;;2.73;2.10;;;30.90;78.00;;;;;;5034192;28;20457;-64
2023/09/20 12:02:23;;;;;;;3.17;2.10;;;31.00;78.40;;;;;;5034450;28;20463;-64
2023/09/20 12:04:52;;;;;;;2.13;1.97;;;31.10;77.00;;;;;;5034229;28;20458;-65
2023/09/20 12:07:19;;;;;;;2.47;2.17;;;31.30;77.40;;;;;;5016951;28;20516;-64
2023/09/20 12:09:46;;;;;;;2.20;2.00;;;31.20;75.80;;;;;;5034140;28;20461;-64
2023/09/20 12:12:14;;;;;;;2.67;2.10;;;31.50;78.70;;;;;;5034224;28;20454;-64
2023/09/20 12:14:42;;;;;;;2.30;1.90;;;31.60;76.90;;;;;;5034117;28;20451;-65
2023/09/20 12:17:10;;;;;;;2.43;1.90;;;31.60;78.60;;;;;;5033833;28;20491;-65
2023/09/20 12:19:37;;;;;;;2.80;2.20;;;31.60;78.80;;;;;;5016459;28;20450;-64
2023/09/20 12:22:04;;;;;;;2.67;2.50;;;31.70;77.60;;;;;;5033882;28;20829;-65
2023/09/20 12:24:31;;;;;;;2.07;1.97;;;31.90;77.20;;;;;;5032950;28;20458;-64
2023/09/20 12:26:58;;;;;;;2.63;2.00;;;31.80;76.10;;;;;;5033871;28;20716;-64
2023/09/20 12:29:28;;;;;;;2.40;2.00;;;31.50;76.70;;;;;;5033682;28;20450;-64
2023/09/20 12:31:57;;;;;;;2.80;2.30;;;31.80;77.90;;;;;;5033581;28;20478;-64
2023/09/20 12:34:24;;;;;;;2.67;2.40;;;31.90;77.90;;;;;;5033625;28;20450;-64
2023/09/20 12:36:52;;;;;;;5.13;2.47;;;31.70;77.80;;;;;;5033607;28;20487;-63
2023/09/20 12:39:19;;;;;;;2.50;2.20;;;31.50;78.10;;;;;;5033504;28;20945;-65
2023/09/20 12:41:47;;;;;;;3.17;2.20;;;31.80;77.40;;;;;;5015588;28;20458;-65
2023/09/20 12:44:14;;;;;;;3.30;2.20;;;32.00;78.50;;;;;;5033192;28;20451;-62
2023/09/20 12:46:42;;;;;;;5.10;2.33;;;32.30;78.00;;;;;;5246942;22;20454;-74
2023/09/20 12:49:11;;;;;;;2.30;2.10;;;32.20;77.80;;;;;;4996252;28;20468;-73
2023/09/20 12:51:38;;;;;;;2.30;2.10;;;32.40;77.40;;;;;;5014854;28;20455;-73
2023/09/20 12:54:06;;;;;;;3.20;2.03;;;32.60;75.90;;;;;;5014275;28;20459;-73
2023/09/20 12:56:34;;;;;;;2.57;2.20;;;32.60;76.70;;;;;;5014544;28;20586;-73
2023/09/20 12:59:01;;;;;;;3.97;2.33;;;32.20;76.90;;;;;;5014409;28;20471;-72
2023/09/20 13:01:29;;;;;;;2.73;2.20;;;32.30;76.50;;;;;;5208437;22;20487;-73
2023/09/20 13:03:56;;;;;;;2.77;2.30;;;32.40;77.10;;;;;;5013435;28;20452;-73
2023/09/20 13:06:27;;;;;;;4.47;2.23;;;32.30;77.10;;;;;;5013007;28;20454;-73
2023/09/20 13:08:55;;;;;;;3.47;2.23;;;32.60;78.50;;;;;;5013336;28;20871;-72
2023/09/20 13:11:23;;;;;;;3.47;2.30;;;32.60;77.40;;;;;;5013124;28;21035;-72
2023/09/20 13:13:50;;;;;;;2.57;2.07;;;32.90;76.00;;;;;;5013032;28;20464;-72
2023/09/20 13:16:17;;;;;;;3.40;2.37;;;33.00;75.80;;;;;;4995899;28;20491;-73
2023/09/20 13:18:45;;;;;;;5.10;2.13;;;33.00;75.60;;;;;;5013213;28;20622;-73
2023/09/20 13:21:12;;;;;;;2.60;2.20;;;33.20;77.80;;;;;;5012997;28;20478;-72
2023/09/20 13:23:40;;;;;;;4.73;2.47;;;33.20;76.10;;;;;;5012986;28;20456;-73
2023/09/20 13:26:08;;;;;;;3.03;2.30;;;33.20;77.00;;;;;;5012877;28;20460;-72
2023/09/20 13:28:35;;;;;;;3.30;2.40;;;33.40;75.90;;;;;;4995570;28;20494;-73
2023/09/20 13:31:02;;;;;;;1.87;1.83;;;33.60;75.60;;;;;;5012729;28;20455;-73
2023/09/20 13:33:30;;;;;;;1.93;1.80;;;33.40;75.60;;;;;;4979529;28;20475;-73
2023/09/20 13:35:57;;;;;;;2.33;1.90;;;33.60;74.20;;;;;;5012666;28;20452;-74
2023/09/20 13:38:24;;;;;;;2.63;2.03;;;33.80;74.30;;;;;;5012875;28;20452;-73
2023/09/20 13:40:55;;;;;;;2.50;1.90;;;33.90;73.50;;;;;;5012560;28;20452;-74
2023/09/20 13:43:22;;;;;;;2.77;2.30;;;33.70;73.50;;;;;;5012736;28;20495;-75